Ithaca, New York
Current Conditions -  °F | °C
As of 3:56 PM on Thursday 20 Nov 2014 (Local Time) from KITH Reporting Station
Snow Showers Snow Showers  
Wind Chill: 27°   Ceiling: 5500
Heat Index: 27°   Visibility: 10mi
Dew Point: 20°   Wind: 0mph
Humidity: 75%   Direction: NA
Pressure: 29.84"   Gusts: NA
Location:  42.44°N, 76.49°W
Report Text: KITH 202056Z 00000KT 10SM -SHSN SCT027 BKN055 M03/M07 A2984 RMK AO2 53009 60000 T10271066 P0000 SLP118
Loading
Personal Weather Stations






























Interactive Weather Map New forecast layout! Learn more

10-Day Weather Forecast

Advertisements
Track Severe Weather on mobile